Time;durP1;ratioP1;P1;durP2;ratioP2;P2;SDS_P1;SDS_P2;PMS_P1;PMS_P2;Temp;Humidity;BMP_temperature;BMP_pressure;BME280_temperature;BME280_humidity;BME280_pressure;Samples;Min_cycle;Max_cycle;Signal;HPM_P1;HPM_P2
2022/07/26 00:01:23;;;;;;;17.77;10.57;;;;;;;26.14;61.10;99152.53;5096786;28;20311;-56
2022/07/26 00:03:51;;;;;;;20.67;10.80;;;;;;;26.13;61.13;99149.94;5095028;28;20191;-57
2022/07/26 00:06:19;;;;;;;18.65;12.43;;;;;;;26.15;61.13;99158.66;5075708;28;20518;-56
2022/07/26 00:08:46;;;;;;;11.73;10.60;;;;;;;26.17;61.07;99157.66;5076395;28;20202;-56
2022/07/26 00:11:13;;;;;;;10.70;9.70;;;;;;;26.20;60.95;99154.84;5095732;28;20226;-57
2022/07/26 00:13:41;;;;;;;10.67;9.60;;;;;;;26.19;60.99;99153.13;5096467;28;20199;-57
2022/07/26 00:16:07;;;;;;;12.57;10.27;;;;;;;26.18;60.62;99159.31;5094221;28;20194;-57
2022/07/26 00:18:34;;;;;;;11.60;9.80;;;;;;;26.17;61.03;99149.75;5076158;28;20191;-57
2022/07/26 00:21:01;;;;;;;10.10;9.10;;;;;;;26.13;61.33;99155.19;5076237;28;20184;-57
2022/07/26 00:23:29;;;;;;;10.30;9.50;;;;;;;26.08;61.61;99160.72;5076499;28;20257;-57
2022/07/26 00:25:56;;;;;;;12.03;10.27;;;;;;;26.03;61.52;99157.47;5072118;28;20191;-57
2022/07/26 00:28:23;;;;;;;10.90;9.80;;;;;;;25.99;61.75;99163.81;5073065;28;20570;-57
2022/07/26 00:30:50;;;;;;;11.00;9.93;;;;;;;25.97;61.85;99159.56;5072751;28;20192;-55
2022/07/26 00:33:17;;;;;;;11.73;9.47;;;;;;;25.85;62.27;99154.94;5083967;28;20206;-56
2022/07/26 00:35:44;;;;;;;15.03;10.40;;;;;;;25.83;62.30;99157.63;5077321;28;20206;-56
2022/07/26 00:38:10;;;;;;;11.40;10.07;;;;;;;25.78;62.09;99155.25;5072497;28;20453;-56
2022/07/26 00:40:39;;;;;;;12.13;10.03;;;;;;;25.75;62.14;99158.03;5072591;28;20191;-57
2022/07/26 00:43:05;;;;;;;10.27;9.37;;;;;;;25.76;62.27;99162.38;5080213;28;20198;-56
2022/07/26 00:45:32;;;;;;;15.70;9.40;;;;;;;25.79;62.19;99158.75;5088540;28;20658;-56
2022/07/26 00:47:59;;;;;;;10.87;9.77;;;;;;;25.75;62.28;99160.66;5092509;28;20187;-57
2022/07/26 00:50:26;;;;;;;10.23;9.27;;;;;;;25.72;62.43;99160.81;5091821;28;20202;-57
2022/07/26 00:52:53;;;;;;;10.63;9.53;;;;;;;25.74;62.23;99158.94;5092352;28;20296;-56
2022/07/26 00:55:20;;;;;;;11.27;9.37;;;;;;;25.75;62.21;99157.19;5092000;28;20194;-57
2022/07/26 00:57:49;;;;;;;10.87;9.70;;;;;;;25.69;62.37;99160.97;5089768;28;20223;-57
2022/07/26 01:00:19;;;;;;;14.37;10.23;;;;;;;25.69;61.94;99153.06;5092845;28;20187;-56
2022/07/26 01:02:46;;;;;;;11.77;10.65;;;;;;;25.65;62.25;99154.19;5092231;28;20482;-57
2022/07/26 01:05:13;;;;;;;10.33;9.37;;;;;;;25.69;62.06;99155.72;5090582;28;20704;-57
2022/07/26 01:07:40;;;;;;;10.30;9.40;;;;;;;25.68;62.45;99154.00;5087331;28;20207;-57
2022/07/26 01:10:11;;;;;;;10.47;9.47;;;;;;;25.62;62.14;99150.84;5091627;28;20191;-58
2022/07/26 01:12:38;;;;;;;10.30;9.37;;;;;;;25.56;62.06;99149.38;5092349;28;20218;-57
2022/07/26 01:15:07;;;;;;;10.57;9.50;;;;;;;25.55;62.42;99152.91;5092599;28;20221;-57
2022/07/26 01:17:34;;;;;;;10.90;9.77;;;;;;;25.52;62.52;99147.78;5077704;28;20200;-57
2022/07/26 01:20:01;;;;;;;10.70;9.67;;;;;;;25.50;62.60;99151.44;5074389;28;20202;-57
2022/07/26 01:22:30;;;;;;;10.87;9.43;;;;;;;25.56;62.28;99156.41;5085724;28;20199;-57
2022/07/26 01:24:56;;;;;;;11.13;10.13;;;;;;;25.59;62.07;99151.00;5074137;28;20450;-57
2022/07/26 01:27:23;;;;;;;13.03;9.73;;;;;;;25.61;62.33;99151.75;5075034;28;20194;-57
2022/07/26 01:29:51;;;;;;;12.77;9.00;;;;;;;25.57;62.02;99151.03;5076371;28;20202;-57
2022/07/26 01:32:18;;;;;;;11.70;9.27;;;;;;;25.52;61.79;99134.66;5082067;28;20252;-57
2022/07/26 01:34:45;;;;;;;10.00;9.20;;;;;;;25.52;62.12;99139.91;5089176;28;20213;-57
2022/07/26 01:37:12;;;;;;;10.10;9.10;;;;;;;25.36;61.84;99127.56;5091423;28;20194;-58
2022/07/26 01:39:42;;;;;;;10.53;9.57;;;;;;;25.49;61.90;99147.13;5087903;28;20546;-57
2022/07/26 01:42:09;;;;;;;11.13;9.70;;;;;;;25.44;62.15;99147.28;5088430;28;20531;-57
2022/07/26 01:44:36;;;;;;;10.67;9.47;;;;;;;25.39;62.25;99145.81;5091860;28;20492;-57
2022/07/26 01:47:03;;;;;;;10.07;9.17;;;;;;;25.39;62.28;99151.09;5091941;28;20279;-57
2022/07/26 01:49:30;;;;;;;11.50;9.10;;;;;;;25.38;62.17;99142.34;5091805;28;20198;-57
2022/07/26 01:51:56;;;;;;;9.47;8.37;;;;;;;25.27;62.35;99134.16;5091637;28;20222;-57
2022/07/26 01:54:23;;;;;;;9.90;9.00;;;;;;;25.28;62.56;99130.56;5091410;28;20194;-65
2022/07/26 01:56:51;;;;;;;10.67;9.73;;;;;;;25.28;62.73;99138.47;5090783;28;20199;-65
2022/07/26 01:59:18;;;;;;;10.03;9.03;;;;;;;25.26;62.45;99134.22;5091341;28;20203;-65
2022/07/26 02:01:45;;;;;;;10.75;9.70;;;;;;;25.23;62.81;99135.22;5090671;28;20859;-65
2022/07/26 02:04:57;;;;;;;11.00;9.03;;;;;;;25.33;62.18;99127.69;5090714;28;20198;-65
2022/07/26 02:06:59;;;;;;;10.20;9.20;;;;;;;25.31;62.18;99135.69;5090769;28;20198;-65
2022/07/26 02:09:25;;;;;;;10.30;8.87;;;;;;;25.33;62.16;99131.19;5091591;28;20197;-65
2022/07/26 02:11:54;;;;;;;13.97;9.23;;;;;;;25.30;62.05;99136.59;5091111;28;20221;-66
2022/07/26 02:14:20;;;;;;;10.10;9.20;;;;;;;25.21;62.04;99132.66;5091374;28;20206;-65
2022/07/26 02:16:47;;;;;;;10.97;9.00;;;;;;;25.24;62.43;99127.22;5091133;28;20191;-65
2022/07/26 02:19:14;;;;;;;10.67;9.07;;;;;;;25.23;62.97;99130.81;5091252;28;20195;-65
2022/07/26 02:21:41;;;;;;;9.73;8.63;;;;;;;25.21;62.76;99124.78;5091453;28;20191;-65
2022/07/26 02:24:08;;;;;;;10.77;9.30;;;;;;;25.21;63.20;99127.41;5089874;28;20953;-65
2022/07/26 02:26:34;;;;;;;12.13;8.50;;;;;;;25.29;63.36;99123.53;5091018;28;20191;-65
2022/07/26 02:29:02;;;;;;;9.47;8.63;;;;;;;25.30;62.44;99128.72;5090883;28;20194;-65
2022/07/26 02:31:29;;;;;;;9.07;8.17;;;;;;;25.27;61.35;99128.03;5089143;28;20198;-65
2022/07/26 02:33:56;;;;;;;9.20;8.20;;;;;;;25.22;61.87;99107.19;5087589;28;20199;-65
2022/07/26 02:36:23;;;;;;;9.17;8.37;;;;;;;25.18;62.41;99121.44;5070463;28;20739;-65
2022/07/26 02:38:50;;;;;;;10.17;9.27;;;;;;;25.08;63.08;99125.41;5070588;28;20198;-65
2022/07/26 02:41:16;;;;;;;10.27;8.47;;;;;;;25.04;62.40;99126.50;5070634;28;20199;-65
2022/07/26 02:43:43;;;;;;;9.03;7.83;;;;;;;25.02;62.95;99126.59;5070400;28;20196;-65
2022/07/26 02:46:11;;;;;;;12.07;8.80;;;;;;;24.98;62.62;99127.66;5070465;28;20188;-65
2022/07/26 02:48:38;;;;;;;9.43;8.27;;;;;;;24.96;63.12;99131.28;5070006;28;20195;-65
2022/07/26 02:51:05;;;;;;;8.27;7.47;;;;;;;24.97;63.56;99133.84;5070333;28;20324;-64
2022/07/26 02:53:32;;;;;;;11.27;8.43;;;;;;;24.91;62.51;99136.78;5070224;28;20260;-64
2022/07/26 02:55:59;;;;;;;15.47;8.00;;;;;;;24.85;63.14;99137.06;5070351;28;20628;-65
2022/07/26 02:58:26;;;;;;;10.93;8.10;;;;;;;24.83;62.87;99140.69;5070111;28;20228;-65
2022/07/26 03:00:53;;;;;;;10.95;8.93;;;;;;;24.85;62.94;99138.84;5069378;28;20481;-65
2022/07/26 03:03:22;;;;;;;9.40;8.50;;;;;;;24.84;63.26;99140.59;5070139;28;20198;-56
2022/07/26 03:05:49;;;;;;;10.23;9.13;;;;;;;24.70;63.66;99135.09;5070150;28;20196;-57
2022/07/26 03:08:15;;;;;;;10.70;9.60;;;;;;;24.61;63.97;99140.81;5079904;28;20301;-57
2022/07/26 03:10:42;;;;;;;11.73;9.73;;;;;;;24.58;63.84;99143.56;5077652;28;20208;-57
2022/07/26 03:13:09;;;;;;;9.70;8.70;;;;;;;24.49;64.29;99142.22;5070150;28;20216;-57
2022/07/26 03:15:36;;;;;;;9.27;8.37;;;;;;;24.46;64.65;99146.75;5070298;28;20191;-57
2022/07/26 03:18:03;;;;;;;12.13;8.63;;;;;;;24.33;65.07;99143.84;5070201;28;20681;-56
2022/07/26 03:20:31;;;;;;;9.73;8.77;;;;;;;24.30;65.65;99151.84;5069944;28;20197;-56
2022/07/26 03:22:58;;;;;;;10.90;8.95;;;;;;;24.33;65.83;99156.13;5069080;28;20790;-56
2022/07/26 03:25:25;;;;;;;10.00;9.10;;;;;;;24.48;65.35;99161.53;5070028;28;20222;-56
2022/07/26 03:27:55;;;;;;;8.73;8.03;;;;;;;24.51;64.88;99163.16;5070309;28;20191;-65
2022/07/26 03:30:22;;;;;;;9.90;9.10;;;;;;;24.56;65.00;99164.66;5070008;28;20226;-65
2022/07/26 03:32:49;;;;;;;13.20;8.93;;;;;;;24.60;65.09;99168.00;5069786;28;20746;-65
2022/07/26 03:35:17;;;;;;;12.53;11.47;;;;;;;24.61;65.66;99167.09;5070050;28;20688;-66
2022/07/26 03:37:45;;;;;;;13.67;12.33;;;;;;;24.62;66.55;99168.78;5070143;28;20203;-65
2022/07/26 03:40:13;;;;;;;13.47;12.13;;;;;;;24.64;66.53;99170.41;5070075;28;20192;-65
2022/07/26 03:42:39;;;;;;;13.13;11.83;;;;;;;24.68;66.63;99173.75;5069998;28;20184;-66
2022/07/26 03:45:07;;;;;;;13.07;11.50;;;;;;;24.71;66.23;99172.75;5070000;28;20589;-66
2022/07/26 03:47:35;;;;;;;13.73;12.43;;;;;;;24.71;66.11;99173.59;5070019;28;20200;-66
2022/07/26 03:50:02;;;;;;;16.50;11.53;;;;;;;24.74;66.22;99170.84;5070325;28;20201;-66
2022/07/26 03:52:29;;;;;;;13.77;12.37;;;;;;;24.83;65.97;99173.06;5069803;28;20720;-66
2022/07/26 03:54:57;;;;;;;13.30;12.10;;;;;;;24.89;66.20;99172.78;5070026;28;20206;-66
2022/07/26 03:57:23;;;;;;;14.73;13.23;;;;;;;24.98;65.51;99172.34;5069570;28;20239;-65
2022/07/26 03:59:50;;;;;;;14.02;12.55;;;;;;;25.07;65.06;99171.94;5070389;28;20436;-66
2022/07/26 04:02:17;;;;;;;12.17;11.03;;;;;;;25.16;64.10;99176.72;5073824;28;20199;-66
2022/07/26 04:04:44;;;;;;;12.80;11.47;;;;;;;25.26;62.89;99165.78;5073591;28;20233;-65
2022/07/26 04:07:11;;;;;;;12.13;10.70;;;;;;;25.36;62.45;99167.00;5074170;28;20192;-65
2022/07/26 04:09:38;;;;;;;11.47;10.37;;;;;;;25.38;62.14;99168.63;5093728;28;20245;-65
2022/07/26 04:12:06;;;;;;;11.20;10.20;;;;;;;25.40;61.92;99169.44;5093633;28;20953;-65
2022/07/26 04:14:33;;;;;;;12.07;10.73;;;;;;;25.45;61.78;99171.84;5093347;28;20199;-66
2022/07/26 04:17:00;;;;;;;16.07;11.47;;;;;;;25.48;62.12;99159.41;5093497;28;20707;-65
2022/07/26 04:19:27;;;;;;;17.47;12.33;;;;;;;25.55;62.50;99158.19;5093443;28;20627;-65
2022/07/26 04:21:53;;;;;;;15.57;12.97;;;;;;;25.59;62.43;99151.00;5091722;28;20444;-66
2022/07/26 04:24:20;;;;;;;15.33;12.30;;;;;;;25.74;62.54;99158.09;5088597;28;20441;-66
2022/07/26 04:26:47;;;;;;;16.77;12.57;;;;;;;25.76;61.96;99161.53;5090814;28;20708;-65
2022/07/26 04:29:15;;;;;;;17.77;13.13;;;;;;;25.83;61.93;99157.63;5093236;28;20179;-65
2022/07/26 04:31:42;;;;;;;17.93;14.67;;;;;;;25.87;62.33;99159.19;5092729;28;20562;-58
2022/07/26 04:34:09;;;;;;;18.27;14.55;;;;;;;25.94;62.21;99165.84;5092577;28;20210;-58
2022/07/26 04:36:35;;;;;;;19.45;14.77;;;;;;;25.90;62.16;99166.94;5092109;28;20187;-58
2022/07/26 04:39:02;;;;;;;17.73;15.05;;;;;;;25.79;62.62;99149.03;5092272;28;20248;-58
2022/07/26 04:41:29;;;;;;;18.83;15.13;;;;;;;25.75;63.08;99163.28;5092585;28;20597;-58
2022/07/26 04:43:56;;;;;;;16.83;14.57;;;;;;;25.78;63.12;99162.28;5092585;28;20205;-58
2022/07/26 04:46:25;;;;;;;19.50;15.27;;;;;;;25.86;63.14;99161.88;5092485;28;20248;-58
2022/07/26 04:48:51;;;;;;;18.23;16.23;;;;;;;25.71;63.50;99160.91;5092704;28;20214;-58
2022/07/26 04:51:18;;;;;;;17.63;15.75;;;;;;;25.83;63.33;99162.91;5092493;28;20198;-58
2022/07/26 04:53:45;;;;;;;17.58;14.48;;;;;;;25.95;63.18;99161.44;5092519;28;20206;-58
2022/07/26 04:56:12;;;;;;;19.08;14.52;;;;;;;26.04;63.12;99160.97;5092653;28;20225;-58
2022/07/26 04:58:39;;;;;;;16.13;14.43;;;;;;;26.14;62.13;99164.84;5092218;28;20227;-58
2022/07/26 05:01:25;;;;;;;15.63;13.88;;;;;;;26.16;60.97;99160.34;5051099;28;20210;-58
2022/07/26 05:03:52;;;;;;;16.38;14.57;;;;;;;26.24;60.59;99166.91;5091868;28;20220;-58
2022/07/26 05:06:18;;;;;;;16.67;14.95;;;;;;;26.30;60.20;99169.22;5092575;28;20313;-58
2022/07/26 05:08:45;;;;;;;15.10;13.80;;;;;;;26.35;59.97;99163.69;5092145;28;20190;-58
2022/07/26 05:11:12;;;;;;;16.88;14.15;;;;;;;26.43;59.81;99168.56;5091068;28;20683;-58
2022/07/26 05:13:39;;;;;;;16.65;14.93;;;;;;;26.49;59.57;99166.47;5091546;28;20219;-59
2022/07/26 05:16:06;;;;;;;18.95;14.48;;;;;;;26.51;58.75;99166.41;5091913;28;20579;-58
2022/07/26 05:18:34;;;;;;;17.92;14.38;;;;;;;26.59;58.99;99158.94;5091830;28;20191;-59
2022/07/26 05:21:01;;;;;;;16.80;15.00;;;;;;;26.71;58.81;99164.38;5091446;28;21274;-58
2022/07/26 05:23:28;;;;;;;15.85;14.23;;;;;;;26.85;57.79;99161.84;5091929;28;20187;-58
2022/07/26 05:25:55;;;;;;;16.20;14.55;;;;;;;26.91;57.82;99152.75;5088106;28;20191;-58
2022/07/26 05:28:22;;;;;;;17.55;15.05;;;;;;;26.88;57.38;99156.41;5091287;28;20198;-58
2022/07/26 05:30:48;;;;;;;15.18;13.88;;;;;;;26.96;57.55;99148.06;5091760;28;20190;-57
2022/07/26 05:33:15;;;;;;;16.92;15.13;;;;;;;27.00;56.70;99157.53;5091420;28;20712;-57
2022/07/26 05:35:44;;;;;;;18.13;13.90;;;;;;;27.07;56.88;99150.09;5091394;28;20662;-58
2022/07/26 05:38:11;;;;;;;15.98;14.30;;;;;;;27.08;56.05;99155.31;5090227;28;20194;-57
2022/07/26 05:40:37;;;;;;;16.70;15.00;;;;;;;26.97;57.20;99148.94;5089423;28;20202;-58
2022/07/26 05:43:04;;;;;;;16.40;14.88;;;;;;;27.07;56.56;99160.66;5090495;28;20218;-58
2022/07/26 05:45:31;;;;;;;17.38;15.70;;;;;;;27.04;57.49;99161.69;5090695;28;20195;-57
2022/07/26 05:47:58;;;;;;;20.08;15.75;;;;;;;27.02;57.76;99158.28;5090722;28;20187;-58
2022/07/26 05:50:25;;;;;;;17.17;15.15;;;;;;;27.06;57.34;99159.81;5091049;28;20195;-67
2022/07/26 05:52:53;;;;;;;16.30;14.82;;;;;;;27.17;57.28;99156.56;5090708;28;20933;-65
2022/07/26 05:55:19;;;;;;;16.30;14.80;;;;;;;27.15;56.55;99153.16;5090929;28;21035;-66
2022/07/26 05:57:47;;;;;;;17.70;16.08;;;;;;;27.19;56.36;99154.69;5090364;28;20452;-66
2022/07/26 06:00:14;;;;;;;18.57;16.77;;;;;;;27.22;56.06;99155.34;5091476;28;20721;-66
2022/07/26 06:02:41;;;;;;;21.63;15.85;;;;;;;27.33;55.76;99157.41;5091223;28;20191;-66
2022/07/26 06:05:09;;;;;;;16.55;15.05;;;;;;;27.14;55.14;99135.66;5091250;28;20633;-66
2022/07/26 06:07:35;;;;;;;17.00;15.55;;;;;;;27.29;55.71;99156.72;5091203;28;20182;-66
2022/07/26 06:10:04;;;;;;;18.70;15.25;;;;;;;27.40;55.21;99151.72;5087069;28;20194;-66
2022/07/26 06:12:31;;;;;;;16.75;15.13;;;;;;;27.38;55.13;99150.94;5079393;28;20199;-67
2022/07/26 06:14:58;;;;;;;16.92;15.43;;;;;;;27.46;55.13;99146.09;5070891;28;20191;-67
2022/07/26 06:17:28;;;;;;;17.63;15.80;;;;;;;27.44;55.62;99141.84;5070615;28;20219;-67
2022/07/26 06:19:55;;;;;;;18.95;17.35;;;;;;;27.53;55.10;99141.28;5071145;28;20901;-67
2022/07/26 06:22:22;;;;;;;16.65;15.15;;;;;;;27.65;54.62;99142.38;5084021;28;20183;-67
2022/07/26 06:24:49;;;;;;;17.48;15.93;;;;;;;27.62;55.18;99148.66;5089255;28;20183;-68
2022/07/26 06:27:17;;;;;;;18.48;16.63;;;;;;;27.75;54.81;99138.22;5087544;28;20183;-67
2022/07/26 06:29:44;;;;;;;18.65;16.77;;;;;;;27.75;54.55;99128.53;5089664;28;20215;-59
2022/07/26 06:32:10;;;;;;;18.40;16.50;;;;;;;27.79;54.74;99124.78;5090319;28;20199;-59
2022/07/26 06:34:37;;;;;;;17.23;15.63;;;;;;;27.90;54.93;99126.75;5089873;28;20221;-59
2022/07/26 06:37:04;;;;;;;22.05;16.38;;;;;;;27.94;54.94;99128.25;5090447;28;20338;-59
2022/07/26 06:39:31;;;;;;;18.85;16.88;;;;;;;27.95;54.72;99128.19;5090223;28;20187;-59
2022/07/26 06:41:58;;;;;;;17.83;16.17;;;;;;;27.95;55.22;99124.69;5090053;28;20194;-59
2022/07/26 06:44:26;;;;;;;19.10;17.40;;;;;;;27.92;54.84;99123.09;5088532;28;20198;-59
2022/07/26 06:46:52;;;;;;;19.35;17.45;;;;;;;27.97;55.31;99117.50;5090097;28;20339;-59
2022/07/26 06:49:19;;;;;;;18.73;16.88;;;;;;;28.07;55.98;99124.81;5088034;28;20297;-58
2022/07/26 06:51:46;;;;;;;18.55;16.38;;;;;;;28.21;55.09;99116.03;5089535;28;20195;-59
2022/07/26 06:54:13;;;;;;;20.52;17.70;;;;;;;28.28;54.43;99117.38;5089103;28;20531;-58
2022/07/26 06:56:40;;;;;;;19.17;17.15;;;;;;;27.98;55.50;99108.66;5089544;28;20217;-60
2022/07/26 06:59:07;;;;;;;19.08;17.20;;;;;;;28.21;54.64;99113.41;5089878;28;20194;-59
2022/07/26 07:01:35;;;;;;;20.42;18.13;;;;;;;28.30;54.76;99112.84;5089536;28;20285;-59
2022/07/26 07:04:02;;;;;;;19.10;17.13;;;;;;;28.24;54.49;99104.47;5089781;28;20210;-59
2022/07/26 07:06:29;;;;;;;19.98;18.05;;;;;;;28.12;55.24;99108.69;5089647;28;20501;-59
2022/07/26 07:08:56;;;;;;;18.15;16.55;;;;;;;28.00;55.21;99106.75;5088631;28;20574;-58
2022/07/26 07:11:23;;;;;;;18.95;16.95;;;;;;;28.17;54.95;99114.56;5089869;28;20210;-59
2022/07/26 07:13:50;;;;;;;19.52;17.50;;;;;;;28.17;53.84;99095.19;5081255;28;20219;-58
2022/07/26 07:16:17;;;;;;;18.42;16.52;;;;;;;28.39;52.87;99109.63;5082251;28;20219;-58
2022/07/26 07:18:45;;;;;;;19.10;17.30;;;;;;;28.34;52.68;99106.44;5086417;28;20199;-59
2022/07/26 07:21:11;;;;;;;19.58;17.70;;;;;;;28.35;53.27;99102.84;5089286;28;20681;-57
2022/07/26 07:23:38;;;;;;;20.35;18.27;;;;;;;28.61;53.35;99112.63;5089479;28;20582;-58
2022/07/26 07:26:05;;;;;;;24.13;17.65;;;;;;;28.77;52.44;99115.16;5088431;28;20209;-57
2022/07/26 07:28:37;;;;;;;20.02;17.98;;;;;;;28.87;52.05;99110.97;5088039;28;20244;-57
2022/07/26 07:31:03;;;;;;;20.00;18.15;;;;;;;28.90;52.10;99109.97;5088091;28;20191;-57
2022/07/26 07:33:30;;;;;;;19.90;17.88;;;;;;;28.94;51.67;99108.81;5088572;28;20218;-57
2022/07/26 07:35:58;;;;;;;19.92;18.23;;;;;;;28.82;51.44;99106.94;5092640;28;20198;-58
2022/07/26 07:38:25;;;;;;;19.65;17.67;;;;;;;28.82;51.41;99102.50;5092291;28;20202;-58
2022/07/26 07:40:52;;;;;;;19.83;17.95;;;;;;;28.80;51.53;99107.03;5091243;28;20183;-57
2022/07/26 07:43:19;;;;;;;19.50;17.70;;;;;;;28.84;51.08;99105.91;5091556;28;20489;-57
2022/07/26 07:45:46;;;;;;;18.23;16.42;;;;;;;28.82;50.76;99107.78;5091396;28;20573;-57
2022/07/26 07:48:13;;;;;;;19.15;17.20;;;;;;;28.74;50.29;99106.56;5092077;28;20194;-57
2022/07/26 07:50:39;;;;;;;20.13;18.05;;;;;;;28.63;51.12;99105.47;5092042;28;20187;-58
2022/07/26 07:53:08;;;;;;;20.90;18.63;;;;;;;28.79;51.06;99101.88;5092725;28;20673;-58
2022/07/26 07:55:35;;;;;;;21.20;17.15;;;;;;;28.92;50.83;99103.63;5093338;28;20195;-58
2022/07/26 07:58:01;;;;;;;20.63;18.70;;;;;;;28.95;50.40;99102.56;5093213;28;20227;-58
2022/07/26 08:00:28;;;;;;;18.85;17.13;;;;;;;28.99;50.34;99104.06;5093121;28;20627;-58
2022/07/26 08:02:55;;;;;;;19.77;17.98;;;;;;;29.13;50.07;99102.22;5092817;28;20194;-58
2022/07/26 08:05:22;;;;;;;19.77;17.93;;;;;;;29.10;49.41;99101.56;5092307;28;20426;-58
2022/07/26 08:07:49;;;;;;;19.65;17.92;;;;;;;29.05;49.93;99111.59;5092996;28;20441;-58
2022/07/26 08:10:17;;;;;;;19.58;17.80;;;;;;;29.06;50.05;99100.06;5092727;28;20190;-58
2022/07/26 08:12:44;;;;;;;19.60;17.58;;;;;;;29.01;50.80;99103.00;5092905;28;20194;-58
2022/07/26 08:15:12;;;;;;;20.70;18.67;;;;;;;29.29;49.79;99107.38;5092794;28;20214;-57
2022/07/26 08:17:38;;;;;;;18.85;17.23;;;;;;;29.36;48.70;99095.44;5092258;28;20202;-57
2022/07/26 08:20:06;;;;;;;20.77;18.67;;;;;;;29.42;48.50;99078.31;5092512;28;20191;-57
2022/07/26 08:22:33;;;;;;;20.20;18.20;;;;;;;29.70;48.03;99081.59;5092320;28;20233;-58
2022/07/26 08:25:00;;;;;;;19.92;18.00;;;;;;;29.88;48.20;99086.63;5092625;28;20190;-58
2022/07/26 08:27:28;;;;;;;19.67;17.73;;;;;;;30.04;47.39;99087.25;5092583;28;20679;-58
2022/07/26 08:29:55;;;;;;;19.92;18.13;;;;;;;30.15;47.01;99080.25;5091977;28;20697;-60
2022/07/26 08:32:22;;;;;;;18.98;17.10;;;;;;;30.27;46.49;99086.50;5092284;28;20198;-57
2022/07/26 08:34:49;;;;;;;19.70;17.85;;;;;;;30.35;46.11;99076.19;5092426;28;20223;-57
2022/07/26 08:37:16;;;;;;;19.60;17.73;;;;;;;30.27;46.12;99067.94;5092133;28;20194;-67
2022/07/26 08:39:45;;;;;;;19.48;17.80;;;;;;;30.38;46.16;99070.72;5092112;28;20187;-66
2022/07/26 08:42:15;;;;;;;20.63;18.73;;;;;;;30.49;45.66;99070.75;5091916;28;20202;-65
2022/07/26 08:44:45;;;;;;;19.70;17.63;;;;;;;30.33;45.95;99073.66;5091461;28;20199;-66
2022/07/26 08:47:13;;;;;;;19.73;17.83;;;;;;;30.28;46.39;99072.28;5091019;28;20195;-66
2022/07/26 08:49:40;;;;;;;21.45;19.08;;;;;;;30.28;46.35;99066.97;5092045;28;20198;-58
2022/07/26 08:52:08;;;;;;;19.35;17.63;;;;;;;30.28;46.83;99066.97;5092098;28;20573;-58
2022/07/26 08:54:35;;;;;;;20.67;18.73;;;;;;;30.33;46.27;99060.38;5091623;28;20643;-58
2022/07/26 08:57:02;;;;;;;24.15;18.23;;;;;;;30.35;46.05;99066.41;5091754;28;20222;-58
2022/07/26 08:59:30;;;;;;;20.08;18.25;;;;;;;30.16;47.11;99058.06;5091687;28;20198;-58
2022/07/26 09:02:00;;;;;;;20.95;17.70;;;;;;;30.37;46.97;99063.72;5092101;28;20199;-58
2022/07/26 09:04:29;;;;;;;21.27;19.08;;;;;;;30.59;46.08;99055.91;5091814;28;20191;-58
2022/07/26 09:07:02;;;;;;;20.27;18.35;;;;;;;30.84;45.83;99053.16;5090976;28;20440;-58
2022/07/26 09:09:30;;;;;;;19.30;17.60;;;;;;;30.57;45.36;99049.03;5091871;28;20190;-62
2022/07/26 09:11:58;;;;;;;19.02;17.10;;;;;;;30.62;45.90;99046.88;5091591;28;20339;-58
2022/07/26 09:14:37;;;;;;;20.23;18.23;;;;;;;30.81;45.52;99045.41;5091474;28;20639;-58
2022/07/26 09:17:06;;;;;;;19.80;17.55;;;;;;;30.83;44.50;99042.63;5091594;28;20218;-58
2022/07/26 09:19:33;;;;;;;18.42;16.63;;;;;;;31.10;45.02;99039.78;5091369;28;20220;-56
2022/07/26 09:22:07;;;;;;;18.98;17.23;;;;;;;31.39;44.37;99026.00;5091336;28;20233;-58
2022/07/26 09:24:36;;;;;;;21.20;19.10;;;;;;;31.57;44.56;99029.09;5091181;28;20194;-58
2022/07/26 09:27:05;;;;;;;20.60;18.60;;;;;;;31.68;44.07;99028.25;5091571;28;20202;-58
2022/07/26 09:29:42;;;;;;;21.57;19.47;;;;;;;31.88;43.54;99025.75;5090641;28;20960;-58
2022/07/26 09:32:15;;;;;;;21.48;17.92;;;;;;;32.09;43.43;99017.91;5091323;28;20482;-58
2022/07/26 09:34:42;;;;;;;19.83;18.10;;;;;;;32.23;43.26;99016.81;5091308;28;20214;-58
2022/07/26 09:37:09;;;;;;;18.55;16.85;;;;;;;32.21;42.49;99016.09;5090849;28;20209;-58
2022/07/26 09:39:54;;;;;;;19.35;17.33;;;;;;;32.23;42.51;99014.16;5090940;28;20704;-58
2022/07/26 09:42:22;;;;;;;18.00;16.30;;;;;;;32.33;42.55;99007.16;5091039;28;20190;-58
2022/07/26 09:44:49;;;;;;;20.52;18.40;;;;;;;32.38;41.79;99005.81;5091197;28;20194;-58
2022/07/26 09:47:17;;;;;;;16.30;14.73;;;;;;;32.31;41.66;99009.06;5090731;28;20661;-58
2022/07/26 09:49:44;;;;;;;16.90;15.25;;;;;;;32.40;42.31;99006.50;5091105;28;20191;-58
2022/07/26 09:52:15;;;;;;;17.95;16.30;;;;;;;32.54;42.20;99008.09;5091033;28;20198;-58
2022/07/26 09:54:45;;;;;;;16.70;15.10;;;;;;;32.66;42.08;99005.25;5091219;28;20348;-57
2022/07/26 09:57:14;;;;;;;17.15;15.65;;;;;;;32.67;41.00;99001.63;5090787;28;20647;-57
2022/07/26 09:59:41;;;;;;;18.38;14.60;;;;;;;32.81;41.56;99007.63;5090786;28;20195;-57
2022/07/26 10:02:09;;;;;;;16.80;15.40;;;;;;;32.81;41.52;99003.16;5090855;28;20190;-57
2022/07/26 10:04:37;;;;;;;18.17;16.45;;;;;;;32.80;40.84;98993.47;5090954;28;20654;-58
2022/07/26 10:07:04;;;;;;;16.73;15.13;;;;;;;32.72;41.30;98998.59;5090462;28;20432;-58
2022/07/26 10:09:37;;;;;;;17.27;15.68;;;;;;;32.91;41.35;98992.59;5090746;28;20255;-58
2022/07/26 10:12:07;;;;;;;18.10;16.50;;;;;;;32.92;41.26;98992.47;5090983;28;20191;-58
2022/07/26 10:14:39;;;;;;;17.23;15.63;;;;;;;32.78;39.78;98973.28;5090553;28;20275;-57
2022/07/26 10:17:45;;;;;;;17.95;16.00;;;;;;;32.90;40.72;98991.75;5090526;28;20194;-57
2022/07/26 10:20:40;;;;;;;16.23;14.82;;;;;;;32.73;40.79;98983.47;5090093;28;20195;-58
2022/07/26 10:23:38;;;;;;;16.73;15.10;;;;;;;32.85;40.09;98983.31;5090509;28;20199;-58
2022/07/26 10:26:07;;;;;;;17.27;15.48;;;;;;;32.93;40.17;98970.22;5090496;28;20191;-58
2022/07/26 10:28:36;;;;;;;16.77;15.30;;;;;;;33.11;40.29;98974.00;5090558;28;20190;-58
2022/07/26 10:31:29;;;;;;;16.85;15.38;;;;;;;33.18;40.24;98972.50;5090294;28;20281;-59
2022/07/26 10:33:58;;;;;;;17.25;15.75;;;;;;;33.32;39.14;98973.19;5090738;28;20202;-58
2022/07/26 10:36:29;;;;;;;15.32;13.77;;;;;;;33.38;38.93;98964.63;5090680;28;20191;-58
2022/07/26 10:39:06;;;;;;;15.00;13.60;;;;;;;33.46;38.24;98963.00;5090391;28;20194;-57
2022/07/26 10:41:35;;;;;;;15.32;13.90;;;;;;;33.55;38.54;98948.91;5090226;28;20193;-57
2022/07/26 10:44:20;;;;;;;15.00;13.70;;;;;;;33.69;38.97;98951.25;5090429;28;20190;-57
2022/07/26 10:47:01;;;;;;;14.52;13.32;;;;;;;33.79;37.96;98945.94;5090235;28;20191;-58
2022/07/26 10:49:34;;;;;;;14.20;12.80;;;;;;;33.74;36.42;98948.16;5089952;28;20198;-58
2022/07/26 10:52:14;;;;;;;13.73;12.52;;;;;;;33.84;37.04;98933.88;5089962;28;20195;-58
2022/07/26 10:55:10;;;;;;;14.88;13.38;;;;;;;33.88;36.77;98939.81;5089784;28;20609;-58
2022/07/26 10:57:39;;;;;;;13.65;12.45;;;;;;;33.93;36.44;98934.06;5046917;28;20281;-58
2022/07/26 11:00:13;;;;;;;14.48;13.00;;;;;;;33.79;36.05;98889.97;5080062;28;20191;-58
2022/07/26 11:02:42;;;;;;;12.88;11.70;;;;;;;34.06;35.35;98918.69;5089547;28;20267;-58
2022/07/26 11:05:15;;;;;;;13.25;11.98;;;;;;;34.16;34.52;98925.75;5089832;28;20220;-58
2022/07/26 11:07:55;;;;;;;16.63;12.95;;;;;;;34.17;35.62;98902.59;5089278;28;20432;-58
2022/07/26 11:10:24;;;;;;;14.23;12.90;;;;;;;34.36;33.81;98916.78;5089480;28;20182;-58
2022/07/26 11:13:02;;;;;;;12.25;11.15;;;;;;;34.38;32.31;98906.81;5089226;28;20198;-58
2022/07/26 11:15:29;;;;;;;12.95;11.80;;;;;;;34.40;32.77;98899.50;5089230;28;20210;-59
2022/07/26 11:18:07;;;;;;;13.07;11.98;;;;;;;34.42;33.37;98896.69;5089526;28;20195;-58
2022/07/26 11:20:33;;;;;;;13.05;11.93;;;;;;;34.46;32.10;98899.94;5089696;28;20194;-58
2022/07/26 11:23:02;;;;;;;12.80;11.57;;;;;;;34.21;31.11;98891.50;5089715;28;20190;-57
2022/07/26 11:25:29;;;;;;;12.32;11.20;;;;;;;34.24;30.84;98885.88;5089646;28;20194;-58